Time;durP1;ratioP1;P1;durP2;ratioP2;P2;SDS_P1;SDS_P2;PMS_P1;PMS_P2;Temp;Humidity;BMP_temperature;BMP_pressure;BME280_temperature;BME280_humidity;BME280_pressure;Samples;Min_cycle;Max_cycle;Signal;HPM_P1;HPM_P2
2022/08/29 00:02:10;;;;;;;9.03;6.37;;;;;;;23.73;82.59;99238.16;5071371;28;20199;-68
2022/08/29 00:04:37;;;;;;;7.20;6.73;;;;;;;23.71;82.71;99240.94;5071200;28;20196;-69
2022/08/29 00:07:04;;;;;;;12.27;6.40;;;;;;;23.77;82.94;99244.81;5070854;28;20215;-69
2022/08/29 00:09:31;;;;;;;8.07;6.13;;;;;;;23.69;82.94;99237.59;5071196;28;20581;-68
2022/08/29 00:11:58;;;;;;;7.73;6.10;;;;;;;23.67;83.12;99239.53;5069571;28;20204;-67
2022/08/29 00:14:24;;;;;;;7.43;6.73;;;;;;;23.60;83.65;99227.94;5071068;28;20683;-69
2022/08/29 00:16:51;;;;;;;7.63;6.93;;;;;;;23.64;83.61;99229.34;5070908;28;20192;-69
2022/08/29 00:19:20;;;;;;;11.33;6.70;;;;;;;23.58;83.92;99232.50;5070584;28;20204;-69
2022/08/29 00:21:47;;;;;;;7.60;7.00;;;;;;;23.46;84.13;99226.50;5071040;28;20199;-69
2022/08/29 00:24:14;;;;;;;11.37;6.17;;;;;;;23.52;84.48;99240.88;5070879;28;20199;-68
2022/08/29 00:26:41;;;;;;;6.67;6.13;;;;;;;23.56;84.65;99239.63;5069991;28;20223;-69
2022/08/29 00:29:07;;;;;;;8.37;7.13;;;;;;;23.58;85.08;99235.09;5069784;28;20204;-68
2022/08/29 00:31:34;;;;;;;6.63;6.20;;;;;;;23.60;84.83;99238.41;5067153;28;20207;-68
2022/08/29 00:34:01;;;;;;;7.20;6.53;;;;;;;23.62;84.94;99228.63;5070790;28;20678;-68
2022/08/29 00:36:29;;;;;;;8.53;6.27;;;;;;;23.66;85.02;99240.50;5070822;28;20200;-68
2022/08/29 00:38:56;;;;;;;7.23;6.63;;;;;;;23.66;84.96;99237.88;5070835;28;20207;-69
2022/08/29 00:41:23;;;;;;;6.33;6.03;;;;;;;23.65;84.90;99236.22;5070613;28;20262;-69
2022/08/29 00:43:50;;;;;;;7.30;6.60;;;;;;;23.67;84.58;99236.09;5070981;28;20580;-68
2022/08/29 00:46:38;;;;;;;10.40;6.83;;;;;;;23.66;84.83;99243.09;5068944;28;20223;-69
2022/08/29 00:49:08;;;;;;;9.00;7.70;;;;;;;23.57;85.03;99222.13;5070224;28;20557;-69
2022/08/29 00:51:37;;;;;;;6.20;5.90;;;;;;;23.58;85.33;99242.13;5070795;28;20200;-68
2022/08/29 00:54:09;;;;;;;6.90;6.50;;;;;;;23.57;85.57;99249.13;5072709;28;20227;-69
2022/08/29 00:56:38;;;;;;;7.17;6.77;;;;;;;23.53;86.13;99247.75;5074832;28;20192;-68
2022/08/29 00:59:10;;;;;;;7.80;7.20;;;;;;;23.45;86.74;99244.97;5074769;28;20242;-68
2022/08/29 01:01:37;;;;;;;6.80;6.20;;;;;;;23.44;86.54;99243.31;5074811;28;20662;-69
2022/08/29 01:04:04;;;;;;;8.90;6.57;;;;;;;23.34;86.78;99237.16;5074968;28;20204;-69
2022/08/29 01:06:33;;;;;;;6.63;6.07;;;;;;;23.34;87.46;99247.63;5074108;28;20222;-68
2022/08/29 01:09:02;;;;;;;7.43;6.77;;;;;;;23.31;87.80;99242.66;5074326;28;20227;-69
2022/08/29 01:14:15;;;;;;;6.90;6.30;;;;;;;23.37;87.65;99252.59;5074246;28;20215;-68
2022/08/29 01:16:42;;;;;;;11.83;6.57;;;;;;;23.38;87.64;99247.25;5074280;28;20226;-69
2022/08/29 01:19:19;;;;;;;7.33;6.27;;;;;;;23.40;87.65;99247.13;5074279;28;20207;-68
2022/08/29 01:21:56;;;;;;;7.20;6.50;;;;;;;23.39;87.30;99255.94;5074460;28;20694;-68
2022/08/29 01:24:35;;;;;;;7.33;6.67;;;;;;;23.26;89.21;99242.22;5073294;28;20583;-68
2022/08/29 01:27:02;;;;;;;7.10;6.63;;;;;;;23.28;88.54;99240.31;5073069;28;20220;-69
2022/08/29 01:29:29;;;;;;;8.00;7.33;;;;;;;23.29;88.55;99249.81;5073837;28;20709;-68
2022/08/29 01:31:56;;;;;;;7.17;6.67;;;;;;;23.19;88.30;99234.06;5074126;28;20196;-68
2022/08/29 01:34:23;;;;;;;7.00;6.27;;;;;;;23.29;88.48;99247.19;5073618;28;20291;-69
2022/08/29 01:36:52;;;;;;;12.73;7.83;;;;;;;23.28;88.83;99248.16;5073914;28;20200;-68
2022/08/29 01:39:21;;;;;;;7.37;6.97;;;;;;;23.21;88.80;99236.53;5073841;28;20199;-69
2022/08/29 01:41:50;;;;;;;7.67;6.90;;;;;;;23.30;88.98;99254.06;5072879;28;20215;-68
2022/08/29 01:44:19;;;;;;;7.20;6.47;;;;;;;23.32;88.94;99257.41;5073925;28;20603;-68
2022/08/29 01:46:47;;;;;;;7.40;6.10;;;;;;;23.32;89.12;99254.78;5073537;28;20231;-68
2022/08/29 01:49:16;;;;;;;7.00;6.40;;;;;;;23.32;89.01;99244.31;5073753;28;20196;-69
2022/08/29 01:51:44;;;;;;;9.83;6.37;;;;;;;23.28;89.09;99232.44;5073607;28;20203;-69
2022/08/29 01:54:12;;;;;;;11.43;6.30;;;;;;;23.14;89.36;99219.69;5073504;28;20315;-69
2022/08/29 01:56:42;;;;;;;7.33;6.83;;;;;;;23.28;89.31;99242.91;5073319;28;20668;-68
2022/08/29 01:59:13;;;;;;;7.60;7.13;;;;;;;23.24;89.49;99234.50;5073778;28;20203;-69
2022/08/29 02:01:44;;;;;;;7.60;6.87;;;;;;;23.14;89.99;99235.41;5073416;28;20200;-68
2022/08/29 02:04:11;;;;;;;7.43;6.87;;;;;;;23.06;90.36;99240.47;5073892;28;20200;-68
2022/08/29 02:06:39;;;;;;;7.10;6.70;;;;;;;22.93;90.25;99230.19;5073397;28;20212;-68
2022/08/29 02:09:06;;;;;;;7.50;6.00;;;;;;;22.96;90.26;99238.63;5073459;28;20207;-69
2022/08/29 02:11:35;;;;;;;7.50;7.10;;;;;;;22.98;89.90;99241.09;5073467;28;20729;-68
2022/08/29 02:14:03;;;;;;;8.00;7.37;;;;;;;22.87;89.51;99238.56;5073222;28;20204;-69
2022/08/29 02:16:32;;;;;;;7.97;7.27;;;;;;;22.95;89.41;99249.19;5073197;28;20216;-68
2022/08/29 02:19:00;;;;;;;9.17;6.70;;;;;;;22.69;89.96;99214.75;5073070;28;20211;-68
2022/08/29 02:21:29;;;;;;;6.90;6.33;;;;;;;22.79;91.15;99252.25;5072293;28;20207;-69
2022/08/29 02:23:57;;;;;;;8.03;6.70;;;;;;;22.74;91.43;99232.69;5071153;28;20200;-68
2022/08/29 02:26:24;;;;;;;7.93;6.67;;;;;;;22.80;92.12;99246.06;5072946;28;20224;-69
2022/08/29 02:28:51;;;;;;;9.50;7.03;;;;;;;22.79;92.77;99247.03;5073110;28;20212;-68
2022/08/29 02:31:19;;;;;;;10.13;7.37;;;;;;;22.79;92.49;99239.19;5073121;28;20219;-68
2022/08/29 02:33:48;;;;;;;7.33;6.47;;;;;;;22.75;91.97;99250.84;5072783;28;20207;-68
2022/08/29 02:36:15;;;;;;;7.47;6.80;;;;;;;22.66;91.44;99241.16;5072946;28;20196;-68
2022/08/29 02:38:42;;;;;;;8.10;6.67;;;;;;;22.63;91.05;99246.59;5072943;28;20204;-69
2022/08/29 02:41:09;;;;;;;9.37;8.47;;;;;;;22.49;91.88;99249.50;5072306;28;20200;-69
2022/08/29 02:43:35;;;;;;;7.67;6.87;;;;;;;22.24;93.24;99250.66;5072755;28;20196;-68
2022/08/29 02:46:03;;;;;;;13.00;7.50;;;;;;;22.06;94.53;99257.34;5072420;28;20203;-68
2022/08/29 02:48:31;;;;;;;7.40;7.00;;;;;;;22.08;94.83;99259.84;5072501;28;20199;-69
2022/08/29 02:50:59;;;;;;;9.43;6.90;;;;;;;22.09;94.91;99264.13;5072550;28;20237;-68
2022/08/29 02:53:29;;;;;;;9.23;6.70;;;;;;;22.09;95.47;99271.94;5072478;28;20253;-68
2022/08/29 02:55:57;;;;;;;7.57;6.93;;;;;;;22.06;95.15;99266.97;5072399;28;20199;-68
2022/08/29 02:58:24;;;;;;;7.97;7.30;;;;;;;22.15;95.30;99266.22;5072482;28;20196;-68
2022/08/29 03:00:51;;;;;;;15.87;7.30;;;;;;;22.19;94.89;99272.88;5072290;28;20237;-68
2022/08/29 03:03:18;;;;;;;9.07;6.90;;;;;;;22.20;95.53;99274.50;5071288;28;20548;-68
2022/08/29 03:05:46;;;;;;;13.70;7.67;;;;;;;22.14;95.22;99272.41;5072287;28;20667;-68
2022/08/29 03:08:15;;;;;;;9.93;7.57;;;;;;;22.15;95.50;99271.47;5071890;28;20216;-68
2022/08/29 03:10:43;;;;;;;18.80;7.70;;;;;;;22.10;96.17;99273.63;5072238;28;20204;-68
2022/08/29 03:13:10;;;;;;;10.53;7.80;;;;;;;22.17;96.18;99279.97;5071999;28;20747;-68
2022/08/29 03:15:37;;;;;;;7.70;7.17;;;;;;;22.20;96.00;99284.97;5071465;28;20200;-68
2022/08/29 03:18:05;;;;;;;7.83;7.23;;;;;;;22.20;95.80;99285.78;5070973;28;20196;-68
2022/08/29 03:20:34;;;;;;;12.43;7.80;;;;;;;22.18;95.78;99292.09;5072011;28;20211;-69
2022/08/29 03:23:01;;;;;;;7.87;7.27;;;;;;;22.14;95.49;99285.44;5070949;28;20221;-68
2022/08/29 03:25:29;;;;;;;9.20;7.63;;;;;;;22.02;96.14;99268.16;5071945;28;20674;-68
2022/08/29 03:27:58;;;;;;;9.53;7.33;;;;;;;22.06;96.14;99293.06;5071802;28;20216;-68
2022/08/29 03:30:25;;;;;;;7.93;7.43;;;;;;;22.06;96.04;99293.91;5071603;28;20211;-68
2022/08/29 03:32:53;;;;;;;8.17;7.53;;;;;;;22.06;96.34;99298.28;5071979;28;20223;-68
2022/08/29 03:35:21;;;;;;;8.00;7.23;;;;;;;22.05;97.26;99301.84;5071646;28;20207;-68
2022/08/29 03:37:48;;;;;;;7.57;7.03;;;;;;;22.05;97.18;99302.69;5071626;28;20279;-68
2022/08/29 03:40:17;;;;;;;9.20;8.43;;;;;;;21.99;96.94;99297.94;5071337;28;20587;-69
2022/08/29 03:42:46;;;;;;;8.40;7.60;;;;;;;21.91;97.55;99289.88;5071608;28;20199;-68
2022/08/29 03:45:17;;;;;;;8.13;6.77;;;;;;;21.94;97.27;99289.63;5071524;28;20660;-68
2022/08/29 03:47:44;;;;;;;8.60;7.00;;;;;;;21.93;96.34;99294.03;5071758;28;20238;-68
2022/08/29 03:50:13;;;;;;;9.57;6.53;;;;;;;21.87;96.01;99293.66;5071244;28;20204;-68
2022/08/29 03:52:41;;;;;;;7.93;7.27;;;;;;;21.72;96.83;99290.44;5071518;28;20601;-69
2022/08/29 03:55:10;;;;;;;11.00;8.00;;;;;;;21.72;96.74;99289.63;5071186;28;20227;-68
2022/08/29 03:57:37;;;;;;;9.60;7.47;;;;;;;21.73;97.30;99297.34;5071266;28;20192;-68
2022/08/29 04:00:15;;;;;;;8.27;7.73;;;;;;;21.75;97.53;99295.44;5071202;28;20268;-68
2022/08/29 04:02:42;;;;;;;7.03;6.63;;;;;;;21.69;96.88;99285.47;5071444;28;20340;-69
2022/08/29 04:05:10;;;;;;;13.43;7.03;;;;;;;21.82;96.71;99303.63;5071202;28;20212;-68
2022/08/29 04:07:43;;;;;;;7.80;7.20;;;;;;;21.68;96.41;99299.47;5070872;28;20218;-68
2022/08/29 04:10:12;;;;;;;11.60;8.27;;;;;;;21.69;96.90;99311.56;5071151;28;20561;-68
2022/08/29 04:12:39;;;;;;;8.37;7.27;;;;;;;21.68;97.29;99317.72;5071000;28;20211;-68
2022/08/29 04:15:09;;;;;;;7.90;6.97;;;;;;;21.70;97.72;99323.66;5070310;28;20241;-68
2022/08/29 04:17:37;;;;;;;7.90;7.40;;;;;;;21.72;97.50;99332.19;5070964;28;20207;-68
2022/08/29 04:20:06;;;;;;;7.57;7.17;;;;;;;21.71;97.31;99329.72;5069696;28;20261;-69
2022/08/29 04:22:35;;;;;;;8.17;7.50;;;;;;;21.60;97.98;99327.94;5070999;28;20667;-68
2022/08/29 04:25:03;;;;;;;8.23;7.43;;;;;;;21.72;97.77;99347.03;5070932;28;20203;-68
2022/08/29 04:27:30;;;;;;;7.70;7.13;;;;;;;21.77;98.04;99337.91;5069867;28;20212;-68
2022/08/29 04:29:57;;;;;;;10.73;6.90;;;;;;;21.81;97.92;99331.47;5069914;28;20217;-68
2022/08/29 04:32:25;;;;;;;7.97;7.43;;;;;;;21.83;97.31;99340.03;5070322;28;20204;-68
2022/08/29 04:34:56;;;;;;;7.43;6.93;;;;;;;21.88;97.32;99337.91;5070739;28;20200;-68
2022/08/29 04:37:23;;;;;;;7.17;6.73;;;;;;;21.96;97.79;99334.75;5070917;28;20196;-68
2022/08/29 04:39:50;;;;;;;8.20;6.83;;;;;;;22.06;97.58;99347.91;5070939;28;20645;-68
2022/08/29 04:42:18;;;;;;;10.03;7.27;;;;;;;22.16;97.58;99351.47;5070794;28;20280;-69
2022/08/29 04:44:45;;;;;;;7.80;6.60;;;;;;;22.23;96.45;99342.19;5070632;28;20711;-69
2022/08/29 04:47:13;;;;;;;7.23;6.53;;;;;;;22.44;96.49;99351.75;5070645;28;20234;-69
2022/08/29 04:49:42;;;;;;;7.37;6.07;;;;;;;22.55;95.55;99353.53;5070542;28;20211;-68
2022/08/29 04:52:09;;;;;;;7.77;6.03;;;;;;;22.70;94.37;99351.50;5071204;28;20545;-69
2022/08/29 04:54:36;;;;;;;11.70;7.80;;;;;;;22.80;94.36;99353.25;5070405;28;20231;-68
2022/08/29 04:57:03;;;;;;;11.53;10.40;;;;;;;22.93;93.62;99353.91;5070695;28;20196;-69
2022/08/29 04:59:30;;;;;;;9.03;8.43;;;;;;;22.98;93.07;99362.19;5070533;28;20204;-69
2022/08/29 05:01:58;;;;;;;7.43;6.77;;;;;;;22.98;92.79;99349.13;5070338;28;20196;-68
2022/08/29 05:04:25;;;;;;;6.50;6.17;;;;;;;22.94;92.95;99331.22;5070428;28;20188;-69
2022/08/29 05:06:54;;;;;;;8.13;6.80;;;;;;;23.05;94.10;99356.47;5070565;28;20561;-68
2022/08/29 05:09:21;;;;;;;7.30;6.40;;;;;;;23.08;94.13;99353.59;5070781;28;20200;-69
2022/08/29 05:11:48;;;;;;;7.20;6.53;;;;;;;23.18;94.00;99359.72;5070369;28;20283;-69
2022/08/29 05:14:15;;;;;;;7.07;6.57;;;;;;;23.19;95.56;99358.78;5069133;28;20207;-69
2022/08/29 05:16:42;;;;;;;6.47;6.13;;;;;;;23.23;95.19;99349.72;5069155;28;20215;-68
2022/08/29 05:19:09;;;;;;;6.60;6.03;;;;;;;23.31;94.84;99363.81;5070484;28;20208;-69
2022/08/29 05:21:39;;;;;;;7.47;6.70;;;;;;;23.39;95.68;99363.19;5070360;28;20192;-69
2022/08/29 05:24:10;;;;;;;7.37;6.47;;;;;;;23.56;97.06;99373.09;5070476;28;20200;-69
2022/08/29 05:26:38;;;;;;;7.60;7.10;;;;;;;23.74;95.53;99362.88;5070454;28;20667;-69
2022/08/29 05:29:07;;;;;;;6.77;6.23;;;;;;;23.85;93.48;99362.78;5069993;28;20219;-68
2022/08/29 05:31:35;;;;;;;12.37;7.03;;;;;;;24.09;92.97;99370.31;5070509;28;20196;-68
2022/08/29 05:34:03;;;;;;;6.37;5.87;;;;;;;24.33;91.14;99368.25;5070127;28;20200;-68
2022/08/29 05:36:30;;;;;;;7.30;6.60;;;;;;;24.58;88.57;99366.91;5070228;28;20192;-69
2022/08/29 05:38:57;;;;;;;10.63;6.40;;;;;;;24.84;85.39;99374.16;5070378;28;20192;-68
2022/08/29 05:41:25;;;;;;;11.23;6.53;;;;;;;25.16;85.29;99380.91;5073844;28;20192;-69
2022/08/29 05:43:53;;;;;;;8.63;7.23;;;;;;;25.44;82.78;99383.50;5073683;28;20240;-68
2022/08/29 05:46:20;;;;;;;7.53;6.50;;;;;;;25.71;79.55;99379.34;5074082;28;20616;-69
2022/08/29 05:48:47;;;;;;;6.13;5.73;;;;;;;25.96;77.20;99376.91;5073757;28;20615;-69
2022/08/29 05:51:18;;;;;;;8.33;6.70;;;;;;;26.17;76.32;99386.41;5073601;28;20204;-66
2022/08/29 05:53:46;;;;;;;10.13;6.53;;;;;;;26.32;76.39;99367.38;5073547;28;20220;-66
2022/08/29 05:56:13;;;;;;;6.90;6.23;;;;;;;26.66;74.63;99383.34;5073722;28;20203;-69
2022/08/29 05:58:41;;;;;;;6.70;6.20;;;;;;;26.90;73.67;99391.53;5073731;28;20209;-69
2022/08/29 06:01:08;;;;;;;8.17;6.37;;;;;;;27.05;74.47;99390.00;5073474;28;20200;-69
2022/08/29 06:03:34;;;;;;;8.60;6.13;;;;;;;27.24;70.86;99388.22;5073707;28;20609;-69
2022/08/29 06:06:01;;;;;;;11.97;5.70;;;;;;;27.34;70.41;99391.56;5073227;28;20215;-69
2022/08/29 06:08:28;;;;;;;6.53;5.83;;;;;;;27.37;67.96;99383.34;5072742;28;20223;-69
2022/08/29 06:10:55;;;;;;;6.10;5.60;;;;;;;27.53;67.81;99392.25;5073436;28;20678;-69
2022/08/29 06:13:22;;;;;;;5.97;5.67;;;;;;;27.70;68.31;99394.97;5072380;28;20200;-69
2022/08/29 06:15:50;;;;;;;7.37;6.20;;;;;;;27.83;68.76;99404.13;5072683;28;20227;-69
2022/08/29 06:18:17;;;;;;;7.60;6.73;;;;;;;27.87;68.81;99400.22;5073141;28;20200;-68
2022/08/29 06:20:43;;;;;;;7.27;5.57;;;;;;;28.01;67.50;99399.59;5073393;28;20595;-69
2022/08/29 06:23:10;;;;;;;6.60;6.03;;;;;;;28.02;67.46;99392.53;5073178;28;20283;-69
2022/08/29 06:25:37;;;;;;;8.73;6.50;;;;;;;28.06;67.40;99386.84;5073495;28;20657;-69
2022/08/29 06:28:04;;;;;;;7.43;6.43;;;;;;;28.13;68.55;99387.88;5072931;28;20277;-69
2022/08/29 06:30:32;;;;;;;10.23;7.30;;;;;;;28.26;69.61;99391.84;5073072;28;20223;-69
2022/08/29 06:33:02;;;;;;;7.47;6.80;;;;;;;28.36;67.73;99388.13;5072976;28;20290;-69
2022/08/29 06:35:29;;;;;;;10.73;6.20;;;;;;;28.45;67.49;99386.31;5072765;28;20207;-69
2022/08/29 06:37:56;;;;;;;6.50;5.90;;;;;;;28.69;68.39;99385.59;5072680;28;20188;-69
2022/08/29 06:40:23;;;;;;;10.00;6.23;;;;;;;28.79;68.40;99392.38;5072884;28;20207;-68
2022/08/29 06:42:49;;;;;;;6.60;6.00;;;;;;;28.95;66.67;99389.75;5073072;28;20200;-69
2022/08/29 06:45:17;;;;;;;20.70;6.50;;;;;;;29.09;63.65;99394.41;5072915;28;20686;-70
2022/08/29 06:47:46;;;;;;;6.37;5.90;;;;;;;29.23;64.96;99377.09;5072714;28;20212;-69
2022/08/29 06:50:15;;;;;;;10.70;5.78;;;;;;;29.37;64.14;99367.69;5072174;28;20199;-69
2022/08/29 06:52:41;;;;;;;6.00;5.70;;;;;;;29.64;60.55;99391.09;5072101;28;20972;-69
2022/08/29 06:55:11;;;;;;;11.33;6.17;;;;;;;29.69;60.23;99386.16;5072414;28;20773;-70
2022/08/29 06:57:41;;;;;;;7.90;6.63;;;;;;;29.82;57.50;99394.38;5072489;28;20196;-69
2022/08/29 07:00:10;;;;;;;24.27;8.27;;;;;;;29.75;59.13;99403.97;5072671;28;20196;-69
2022/08/29 07:02:37;;;;;;;15.10;7.57;;;;;;;29.83;59.99;99401.31;5072266;28;20667;-69
2022/08/29 07:05:05;;;;;;;19.53;7.17;;;;;;;29.94;58.79;99397.50;5072247;28;20203;-69
2022/08/29 07:07:33;;;;;;;8.50;7.70;;;;;;;30.04;58.73;99393.69;5071979;28;20196;-69
2022/08/29 07:10:01;;;;;;;8.13;7.35;;;;;;;30.12;57.91;99396.28;5071558;28;20269;-69
2022/08/29 07:12:27;;;;;;;9.15;7.00;;;;;;;30.19;56.89;99391.97;5071226;28;20217;-69
2022/08/29 07:14:54;;;;;;;10.18;6.53;;;;;;;30.32;57.11;99395.88;5068141;28;20257;-70
2022/08/29 07:17:21;;;;;;;9.52;6.05;;;;;;;30.36;56.28;99400.66;5072036;28;20200;-70
2022/08/29 07:19:48;;;;;;;7.90;6.65;;;;;;;30.48;53.90;99398.47;5071907;28;20203;-69
2022/08/29 07:22:15;;;;;;;6.00;5.45;;;;;;;30.69;53.89;99393.41;5072418;28;20215;-69
2022/08/29 07:24:43;;;;;;;6.78;6.07;;;;;;;30.93;54.04;99395.88;5071850;28;20206;-69
2022/08/29 07:27:11;;;;;;;6.20;5.80;;;;;;;31.14;52.06;99390.81;5071876;28;20200;-69
2022/08/29 07:29:38;;;;;;;9.75;6.18;;;;;;;31.43;53.85;99397.19;5071655;28;20216;-69
2022/08/29 07:32:05;;;;;;;6.30;5.47;;;;;;;31.61;51.10;99392.41;5072166;28;20215;-69
2022/08/29 07:34:32;;;;;;;7.32;5.75;;;;;;;31.78;50.72;99398.38;5071724;28;20192;-69
2022/08/29 07:36:59;;;;;;;7.28;4.85;;;;;;;31.98;53.08;99396.84;5071744;28;20204;-69
2022/08/29 07:39:26;;;;;;;5.45;5.15;;;;;;;32.08;46.45;99395.59;5071692;28;20208;-70
2022/08/29 07:41:54;;;;;;;6.78;5.90;;;;;;;32.28;48.18;99395.03;5071722;28;20200;-69
2022/08/29 07:44:21;;;;;;;7.50;5.72;;;;;;;32.30;50.19;99403.59;5071432;28;20207;-70
2022/08/29 07:46:49;;;;;;;6.22;5.32;;;;;;;32.36;48.14;99394.91;5071641;28;20200;-70
2022/08/29 07:49:15;;;;;;;6.53;5.18;;;;;;;32.46;49.93;99395.44;5071405;28;20247;-70
2022/08/29 07:51:42;;;;;;;5.60;5.15;;;;;;;32.57;47.90;99397.66;5071223;28;20211;-69
2022/08/29 07:54:09;;;;;;;4.82;4.63;;;;;;;32.77;46.88;99398.66;5071577;28;20219;-70
2022/08/29 07:56:40;;;;;;;6.10;5.47;;;;;;;32.93;45.79;99390.47;5071439;28;20701;-70
2022/08/29 07:59:09;;;;;;;7.13;5.25;;;;;;;33.03;45.35;99383.00;5071194;28;20196;-70
2022/08/29 08:01:36;;;;;;;5.50;4.82;;;;;;;33.14;45.47;99395.81;5071180;28;20210;-70
2022/08/29 08:04:03;;;;;;;5.28;4.90;;;;;;;33.16;47.01;99385.81;5071236;28;20207;-70
2022/08/29 08:06:31;;;;;;;6.10;5.50;;;;;;;33.07;50.74;99378.97;5070474;28;20250;-70
2022/08/29 08:08:58;;;;;;;5.88;5.30;;;;;;;33.27;50.66;99384.47;5070005;28;20216;-70
2022/08/29 08:11:26;;;;;;;4.85;4.55;;;;;;;33.26;44.62;99386.31;5071036;28;20211;-70
2022/08/29 08:13:53;;;;;;;6.97;5.15;;;;;;;33.30;44.67;99383.28;5071092;28;20196;-70
2022/08/29 08:16:23;;;;;;;5.78;5.35;;;;;;;33.41;44.68;99380.09;5071204;28;20206;-70
2022/08/29 08:18:51;;;;;;;9.45;5.18;;;;;;;33.54;44.51;99385.53;5071114;28;20249;-70
2022/08/29 08:21:18;;;;;;;8.98;5.50;;;;;;;33.68;45.06;99387.25;5071255;28;20200;-70
2022/08/29 08:23:45;;;;;;;5.93;5.18;;;;;;;33.74;43.61;99381.16;5070969;28;20200;-70
2022/08/29 08:26:13;;;;;;;6.30;5.63;;;;;;;33.78;47.92;99375.28;5070837;28;20200;-70
2022/08/29 08:28:41;;;;;;;7.10;5.70;;;;;;;33.62;48.63;99378.22;5070392;28;20212;-70
2022/08/29 08:31:10;;;;;;;5.78;5.18;;;;;;;33.67;48.20;99375.81;5070825;28;20207;-70
2022/08/29 08:33:38;;;;;;;9.52;5.38;;;;;;;33.67;47.22;99375.81;5071046;28;20200;-70
2022/08/29 08:36:12;;;;;;;5.78;5.40;;;;;;;33.65;48.04;99364.56;5070791;28;20291;-70
2022/08/29 08:38:39;;;;;;;6.82;5.80;;;;;;;33.88;46.15;99377.56;5070776;28;20196;-70
2022/08/29 08:41:15;;;;;;;5.70;5.10;;;;;;;33.91;45.33;99379.00;5070901;28;20211;-70
2022/08/29 08:43:49;;;;;;;6.05;5.47;;;;;;;34.01;43.02;99375.00;5070927;28;20195;-70
2022/08/29 08:46:16;;;;;;;5.43;5.18;;;;;;;34.11;44.70;99378.16;5070715;28;20670;-70
2022/08/29 08:48:49;;;;;;;5.28;4.97;;;;;;;33.95;43.70;99381.09;5070699;28;20250;-70
2022/08/29 08:51:21;;;;;;;8.23;4.95;;;;;;;33.98;43.95;99366.56;5070638;28;20717;-70
2022/08/29 08:53:52;;;;;;;5.30;4.90;;;;;;;34.13;43.33;99370.78;5070763;28;20306;-70
2022/08/29 08:56:26;;;;;;;5.75;5.18;;;;;;;34.07;43.95;99368.88;5070640;28;20196;-70
2022/08/29 08:58:57;;;;;;;8.50;6.00;;;;;;;34.14;45.68;99359.13;5070708;28;20215;-70
2022/08/29 09:01:30;;;;;;;5.53;4.72;;;;;;;34.27;43.50;99356.50;5070428;28;20602;-70
2022/08/29 09:04:12;;;;;;;7.18;5.32;;;;;;;34.35;46.83;99354.69;5069661;28;20257;-70
2022/08/29 09:06:52;;;;;;;5.47;4.97;;;;;;;34.30;42.96;99355.28;5069356;28;20223;-70
2022/08/29 09:09:29;;;;;;;10.60;5.43;;;;;;;34.24;44.17;99356.09;5068558;28;20238;-70
2022/08/29 09:12:06;;;;;;;7.25;4.55;;;;;;;34.49;40.54;99345.72;5070600;28;20210;-70
2022/08/29 09:14:52;;;;;;;6.35;4.78;;;;;;;34.69;44.74;99349.28;5071969;28;20196;-70
2022/08/29 09:17:24;;;;;;;6.50;5.95;;;;;;;34.71;42.99;99347.22;5074504;28;20286;-71
2022/08/29 09:19:53;;;;;;;6.57;4.85;;;;;;;34.76;41.10;99340.28;5073935;28;20548;-70
2022/08/29 09:22:25;;;;;;;6.43;5.28;;;;;;;34.88;39.14;99337.00;5074141;28;20660;-70
2022/08/29 09:24:57;;;;;;;5.10;4.70;;;;;;;34.94;40.51;99331.69;5074347;28;20566;-70
2022/08/29 09:27:26;;;;;;;5.38;4.90;;;;;;;35.11;39.65;99332.97;5074188;28;20283;-70
2022/08/29 09:30:01;;;;;;;5.60;4.43;;;;;;;35.16;39.52;99330.47;5073988;28;20683;-70
2022/08/29 09:32:28;;;;;;;13.48;5.70;;;;;;;35.09;43.11;99329.63;5074103;28;20195;-70
2022/08/29 09:34:56;;;;;;;5.22;4.80;;;;;;;35.29;39.77;99327.81;5073826;28;20196;-70
2022/08/29 09:37:26;;;;;;;4.97;4.68;;;;;;;35.17;38.47;99326.81;5074369;28;20687;-70
2022/08/29 09:39:57;;;;;;;6.47;5.75;;;;;;;35.14;42.23;99324.56;5073905;28;20200;-71
2022/08/29 09:42:30;;;;;;;5.03;4.55;;;;;;;35.14;42.11;99327.22;5073944;28;20203;-71
2022/08/29 09:45:02;;;;;;;6.97;5.25;;;;;;;35.12;42.31;99321.25;5073765;28;20203;-71
2022/08/29 09:47:31;;;;;;;6.63;5.25;;;;;;;35.12;39.68;99328.47;5073945;28;20204;-70
2022/08/29 09:50:07;;;;;;;5.40;5.10;;;;;;;35.30;40.12;99329.47;5073403;28;20222;-70
2022/08/29 09:52:34;;;;;;;13.73;5.45;;;;;;;35.48;38.44;99328.81;5073908;28;20218;-71
2022/08/29 09:55:21;;;;;;;5.72;5.32;;;;;;;35.27;38.31;99332.53;5073281;28;20761;-70
2022/08/29 09:57:55;;;;;;;5.05;4.68;;;;;;;35.19;39.10;99324.75;5073553;28;20204;-70
2022/08/29 10:00:28;;;;;;;5.72;5.30;;;;;;;35.22;40.29;99319.00;5072813;28;20203;-70
2022/08/29 10:02:59;;;;;;;5.25;4.68;;;;;;;35.20;39.02;99321.06;5073501;28;20238;-70
2022/08/29 10:05:43;;;;;;;8.43;5.45;;;;;;;35.21;40.18;99314.72;5072587;28;20204;-71
2022/08/29 10:08:29;;;;;;;9.68;5.60;;;;;;;35.12;37.56;99309.78;5073181;28;20207;-70
2022/08/29 10:10:58;;;;;;;7.57;5.88;;;;;;;35.10;39.39;99307.31;5073310;28;20299;-69
2022/08/29 10:13:32;;;;;;;5.80;5.32;;;;;;;35.00;38.44;99301.56;5073724;28;20200;-70
2022/08/29 10:16:07;;;;;;;6.95;5.40;;;;;;;35.01;39.50;99300.53;5073325;28;20633;-69
2022/08/29 10:18:44;;;;;;;6.38;5.97;;;;;;;35.01;41.96;99297.06;5073240;28;20228;-70
2022/08/29 10:21:25;;;;;;;6.35;5.47;;;;;;;35.16;42.98;99298.50;5073252;28;20196;-71
2022/08/29 10:24:15;;;;;;;10.23;5.18;;;;;;;35.21;39.80;99300.56;5073315;28;20685;-70
2022/08/29 10:26:53;;;;;;;6.20;5.60;;;;;;;35.18;40.97;99291.13;5073146;28;20203;-70
2022/08/29 10:29:30;;;;;;;5.50;5.03;;;;;;;35.16;41.77;99295.84;5072723;28;20679;-71
2022/08/29 10:32:05;;;;;;;7.07;6.47;;;;;;;35.15;41.05;99288.06;5072949;28;20199;-70
2022/08/29 10:34:43;;;;;;;5.82;5.32;;;;;;;34.74;40.87;99278.41;5073297;28;20196;-70
2022/08/29 10:37:20;;;;;;;6.47;5.95;;;;;;;34.79;40.75;99291.13;5072812;28;20206;-70
2022/08/29 10:39:57;;;;;;;5.68;5.38;;;;;;;34.71;41.01;99283.31;5072494;28;20541;-71
2022/08/29 10:42:26;;;;;;;8.45;6.03;;;;;;;34.59;42.76;99279.59;5072470;28;20639;-68
2022/08/29 10:45:08;;;;;;;5.95;5.65;;;;;;;34.48;43.61;99288.16;5072981;28;20663;-68
2022/08/29 10:47:40;;;;;;;6.30;5.80;;;;;;;34.29;43.34;99284.44;5072801;28;20199;-68
2022/08/29 10:50:27;;;;;;;6.78;6.13;;;;;;;34.01;43.96;99276.56;5072552;28;20220;-67
2022/08/29 10:53:01;;;;;;;7.72;5.95;;;;;;;33.92;42.55;99283.06;5072930;28;20196;-68
2022/08/29 10:55:40;;;;;;;7.03;6.38;;;;;;;33.94;42.09;99283.69;5072406;28;20709;-67
2022/08/29 10:58:11;;;;;;;13.80;6.28;;;;;;;34.02;42.55;99275.53;5072429;28;20208;-67
2022/08/29 11:00:43;;;;;;;6.53;6.22;;;;;;;34.12;45.52;99272.53;5071798;28;20196;-68
2022/08/29 11:03:21;;;;;;;6.95;6.32;;;;;;;34.14;44.34;99273.16;5071371;28;20200;-67
2022/08/29 11:05:57;;;;;;;6.38;5.80;;;;;;;34.19;45.43;99263.53;5072478;28;20200;-68
2022/08/29 11:08:30;;;;;;;8.70;5.55;;;;;;;34.35;44.12;99266.88;5072076;28;20204;-67
2022/08/29 11:10:57;;;;;;;5.80;5.40;;;;;;;34.30;41.09;99270.13;5072310;28;20196;-68
2022/08/29 11:13:28;;;;;;;9.63;5.47;;;;;;;34.32;41.72;99254.75;5072042;28;20204;-67
2022/08/29 11:16:04;;;;;;;5.88;5.30;;;;;;;34.41;40.02;99250.91;5072427;28;20196;-68
2022/08/29 11:18:38;;;;;;;5.55;5.13;;;;;;;34.53;39.69;99248.44;5071988;28;20202;-68
2022/08/29 11:21:13;;;;;;;5.38;5.00;;;;;;;34.61;38.40;99240.28;5072030;28;20196;-69
2022/08/29 11:23:43;;;;;;;5.35;5.03;;;;;;;34.61;37.99;99241.09;5071971;28;20199;-69
2022/08/29 11:26:20;;;;;;;5.90;5.45;;;;;;;34.70;39.76;99234.53;5072152;28;20553;-69
2022/08/29 11:28:56;;;;;;;7.93;5.63;;;;;;;34.83;39.77;99233.75;5071914;28;20203;-69
2022/08/29 11:31:36;;;;;;;6.65;5.97;;;;;;;34.91;41.24;99230.84;5071741;28;20195;-69
2022/08/29 11:34:17;;;;;;;5.93;5.00;;;;;;;34.98;41.04;99231.69;5071904;28;20199;-69
2022/08/29 11:36:59;;;;;;;11.68;5.22;;;;;;;35.09;39.08;99212.38;5071477;28;20679;-69
2022/08/29 11:39:48;;;;;;;5.65;5.30;;;;;;;35.09;37.55;99211.56;5071781;28;20196;-68
2022/08/29 11:42:18;;;;;;;9.68;5.35;;;;;;;34.99;38.73;99222.66;5071752;28;20265;-69
2022/08/29 11:44:49;;;;;;;6.30;5.72;;;;;;;35.00;39.00;99202.97;5071588;28;20587;-69
2022/08/29 11:47:35;;;;;;;8.15;5.85;;;;;;;35.14;38.77;99209.94;5071715;28;20691;-69